Time;durP1;ratioP1;P1;durP2;ratioP2;P2;SDS_P1;SDS_P2;PMS_P1;PMS_P2;Temp;Humidity;BMP_temperature;BMP_pressure;BME280_temperature;BME280_humidity;BME280_pressure;Samples;Min_cycle;Max_cycle;Signal;HPM_P1;HPM_P2
2024/01/03 00:00:53;;;;;;;124.88;88.05;;;;;;;;;;4990969;28;20256;-68
2024/01/03 00:03:18;;;;;;;143.77;94.10;;;;;;;;;;4987634;28;20589;-68
2024/01/03 00:05:44;;;;;;;100.72;71.85;;;;;;;;;;4987707;28;20025;-66
2024/01/03 00:08:23;;;;;;;60.10;45.67;;;;;;;;;;5070304;28;20070;-67
2024/01/03 00:10:48;;;;;;;166.75;113.20;;;;;;;;;;5071887;28;20059;-66
2024/01/03 00:13:32;;;;;;;103.20;73.13;;;;;;;;;;5078753;28;20125;-67
2024/01/03 00:16:09;;;;;;;86.35;60.88;;;;;;;;;;5074034;28;20027;-67
2024/01/03 00:18:34;;;;;;;63.58;44.78;;;;;;;;;;5073802;28;20085;-67
2024/01/03 00:21:00;;;;;;;69.75;54.78;;;;;;;;;;5070462;28;20028;-68
2024/01/03 00:23:32;;;;;;;84.63;60.67;;;;;;;;;;5073361;28;20067;-68
2024/01/03 00:25:58;;;;;;;90.70;70.93;;;;;;;;;;5076099;28;20062;-68
2024/01/03 00:28:23;;;;;;;95.88;74.25;;;;;;;;;;5073844;28;20048;-68
2024/01/03 00:30:48;;;;;;;121.38;91.40;;;;;;;;;;5074934;28;20056;-66
2024/01/03 00:33:14;;;;;;;239.57;190.05;;;;;;;;;;5075079;28;20027;-69
2024/01/03 00:35:39;;;;;;;96.07;78.40;;;;;;;;;;5076549;28;20031;-68
2024/01/03 00:38:06;;;;;;;141.40;119.95;;;;;;;;;;5074720;28;20032;-68
2024/01/03 00:40:31;;;;;;;109.60;92.75;;;;;;;;;;5076469;28;20176;-67
2024/01/03 00:42:57;;;;;;;143.95;101.55;;;;;;;;;;5073688;28;20470;-66
2024/01/03 00:45:22;;;;;;;126.47;96.95;;;;;;;;;;5073281;28;20027;-66
2024/01/03 00:47:48;;;;;;;107.38;81.88;;;;;;;;;;5080526;28;20036;-69
2024/01/03 00:50:14;;;;;;;98.25;72.88;;;;;;;;;;5078516;28;20112;-67
2024/01/03 00:52:40;;;;;;;82.90;62.38;;;;;;;;;;5078189;28;20059;-66
2024/01/03 00:55:06;;;;;;;79.55;62.20;;;;;;;;;;5077681;28;20137;-67
2024/01/03 00:57:31;;;;;;;41.90;33.55;;;;;;;;;;5080581;28;20081;-67
2024/01/03 00:59:56;;;;;;;49.92;39.42;;;;;;;;;;5075531;28;20434;-68
2024/01/03 01:02:22;;;;;;;67.72;50.33;;;;;;;;;;5076158;28;20043;-66
2024/01/03 01:04:47;;;;;;;60.50;45.70;;;;;;;;;;5078559;28;20032;-67
2024/01/03 01:07:12;;;;;;;58.75;45.35;;;;;;;;;;5079115;28;20035;-67
2024/01/03 01:09:38;;;;;;;85.43;66.90;;;;;;;;;;5075343;28;20043;-67
2024/01/03 01:12:03;;;;;;;61.05;46.50;;;;;;;;;;5077018;28;20515;-68
2024/01/03 01:14:29;;;;;;;72.40;59.97;;;;;;;;;;5077691;28;20486;-67
2024/01/03 01:16:54;;;;;;;69.60;55.58;;;;;;;;;;5076491;28;20061;-67
2024/01/03 01:19:19;;;;;;;64.38;51.15;;;;;;;;;;5075542;28;20032;-66
2024/01/03 01:21:45;;;;;;;52.03;42.42;;;;;;;;;;5073809;28;20024;-67
2024/01/03 01:24:10;;;;;;;34.20;27.95;;;;;;;;;;5077413;28;20117;-68
2024/01/03 01:26:36;;;;;;;46.20;35.53;;;;;;;;;;5076170;28;20035;-66
2024/01/03 01:29:01;;;;;;;29.67;21.85;;;;;;;;;;5077419;28;20105;-68
2024/01/03 01:31:27;;;;;;;20.85;17.75;;;;;;;;;;5078069;27;20035;-66
2024/01/03 01:33:52;;;;;;;34.20;27.65;;;;;;;;;;5093966;28;20078;-68
2024/01/03 01:36:17;;;;;;;45.75;34.97;;;;;;;;;;5096717;28;20102;-69
2024/01/03 01:38:44;;;;;;;25.10;20.80;;;;;;;;;;5100004;28;20080;-67
2024/01/03 01:41:09;;;;;;;24.08;19.50;;;;;;;;;;5099479;28;20035;-67
2024/01/03 01:43:35;;;;;;;79.88;65.32;;;;;;;;;;5076714;28;20030;-65
2024/01/03 01:46:00;;;;;;;81.25;62.70;;;;;;;;;;5073082;28;20032;-65
2024/01/03 01:48:25;;;;;;;53.10;42.38;;;;;;;;;;5075224;28;20031;-65
2024/01/03 01:50:51;;;;;;;35.22;29.10;;;;;;;;;;5095259;28;20168;-67
2024/01/03 01:53:17;;;;;;;24.88;19.17;;;;;;;;;;5082065;28;20039;-67
2024/01/03 01:55:42;;;;;;;25.83;18.83;;;;;;;;;;5086098;28;20028;-67
2024/01/03 01:58:08;;;;;;;29.67;21.88;;;;;;;;;;5072804;28;20031;-67
2024/01/03 02:00:34;;;;;;;18.90;14.43;;;;;;;;;;5095261;28;20427;-66
2024/01/03 02:02:59;;;;;;;15.90;11.77;;;;;;;;;;5097914;28;20022;-67
2024/01/03 02:05:25;;;;;;;16.13;10.23;;;;;;;;;;5097835;28;20020;-65
2024/01/03 02:07:50;;;;;;;17.33;13.75;;;;;;;;;;5098111;28;20471;-67
2024/01/03 02:10:16;;;;;;;20.63;14.50;;;;;;;;;;5087038;28;20914;-66
2024/01/03 02:12:41;;;;;;;45.33;35.28;;;;;;;;;;5076086;28;20028;-67
2024/01/03 02:15:06;;;;;;;21.15;16.77;;;;;;;;;;5075687;28;20431;-67
2024/01/03 02:17:32;;;;;;;61.25;44.10;;;;;;;;;;5089375;28;20345;-67
2024/01/03 02:20:00;;;;;;;46.28;33.30;;;;;;;;;;5057964;28;20024;-67
2024/01/03 02:22:28;;;;;;;23.83;16.95;;;;;;;;;;5085754;28;20154;-68
2024/01/03 02:24:54;;;;;;;57.20;45.65;;;;;;;;;;5086739;28;20032;-66
2024/01/03 02:27:20;;;;;;;64.05;49.40;;;;;;;;;;5064096;28;20436;-68
2024/01/03 02:29:45;;;;;;;59.00;46.60;;;;;;;;;;5096333;28;20047;-66
2024/01/03 02:32:10;;;;;;;35.72;29.50;;;;;;;;;;5096722;28;20031;-67
2024/01/03 02:34:36;;;;;;;29.92;23.88;;;;;;;;;;5097961;28;20031;-66
2024/01/03 02:37:01;;;;;;;91.47;64.20;;;;;;;;;;5094390;28;20055;-66
2024/01/03 02:39:27;;;;;;;73.60;54.78;;;;;;;;;;5095873;28;20023;-66
2024/01/03 02:41:52;;;;;;;76.82;59.55;;;;;;;;;;5077377;28;20443;-66
2024/01/03 02:44:19;;;;;;;66.70;52.47;;;;;;;;;;5091741;28;20409;-66
2024/01/03 02:46:45;;;;;;;65.07;50.92;;;;;;;;;;5073391;28;20077;-67
2024/01/03 02:49:10;;;;;;;111.53;78.60;;;;;;;;;;5074436;28;20090;-67
2024/01/03 02:51:35;;;;;;;64.13;43.05;;;;;;;;;;5080583;28;20062;-67
2024/01/03 02:54:01;;;;;;;33.28;26.67;;;;;;;;;;5095381;28;20032;-66
2024/01/03 02:56:26;;;;;;;37.60;31.42;;;;;;;;;;5096638;28;20024;-68
2024/01/03 02:58:51;;;;;;;40.00;33.80;;;;;;;;;;5097486;28;20047;-69
2024/01/03 03:01:17;;;;;;;29.98;24.48;;;;;;;;;;5098026;28;20404;-68
2024/01/03 03:03:42;;;;;;;17.58;14.15;;;;;;;;;;5096947;28;20404;-67
2024/01/03 03:06:07;;;;;;;23.58;15.25;;;;;;;;;;5086101;28;20676;-65
2024/01/03 03:08:33;;;;;;;23.05;19.88;;;;;;;;;;5086981;28;20082;-66
2024/01/03 03:10:58;;;;;;;33.75;27.90;;;;;;;;;;5094124;28;20070;-66
2024/01/03 03:13:24;;;;;;;31.90;23.23;;;;;;;;;;5077758;28;20042;-65
2024/01/03 03:15:49;;;;;;;30.05;17.60;;;;;;;;;;5090687;28;20366;-65
2024/01/03 03:18:14;;;;;;;36.83;21.63;;;;;;;;;;5083979;28;20443;-67
2024/01/03 03:20:40;;;;;;;33.15;18.83;;;;;;;;;;5096411;28;20028;-67
2024/01/03 03:23:05;;;;;;;19.17;12.13;;;;;;;;;;5077150;28;20383;-67
2024/01/03 03:25:30;;;;;;;12.18;8.05;;;;;;;;;;5077019;28;20032;-67
2024/01/03 03:27:56;;;;;;;15.63;8.25;;;;;;;;;;5081178;28;20358;-67
2024/01/03 03:30:22;;;;;;;13.18;9.52;;;;;;;;;;5090124;28;20080;-66
2024/01/03 03:32:47;;;;;;;13.27;10.60;;;;;;;;;;5094688;28;20032;-65
2024/01/03 03:35:13;;;;;;;13.20;10.13;;;;;;;;;;5098722;28;20046;-68
2024/01/03 03:37:39;;;;;;;13.73;10.10;;;;;;;;;;5097654;28;20019;-66
2024/01/03 03:40:05;;;;;;;21.23;15.05;;;;;;;;;;5099835;28;20035;-67
2024/01/03 03:42:30;;;;;;;44.40;25.13;;;;;;;;;;5089883;28;20450;-68
2024/01/03 03:44:55;;;;;;;55.88;33.33;;;;;;;;;;5080372;28;20027;-67
2024/01/03 03:47:21;;;;;;;59.92;34.85;;;;;;;;;;5093972;28;20028;-66
2024/01/03 03:49:46;;;;;;;61.08;37.35;;;;;;;;;;5086385;28;20127;-68
2024/01/03 03:52:11;;;;;;;57.63;35.38;;;;;;;;;;5086749;28;20024;-64
2024/01/03 03:54:37;;;;;;;63.67;39.47;;;;;;;;;;5095392;28;20414;-68
2024/01/03 03:57:02;;;;;;;35.13;23.90;;;;;;;;;;5096348;28;20024;-66
2024/01/03 03:59:27;;;;;;;19.35;15.07;;;;;;;;;;5091193;28;20038;-67
2024/01/03 04:01:54;;;;;;;15.05;8.70;;;;;;;;;;5079889;28;20026;-67
2024/01/03 04:04:20;;;;;;;60.05;45.40;;;;;;;;;;5097634;28;20061;-68
2024/01/03 04:06:45;;;;;;;74.28;61.78;;;;;;;;;;5095569;28;20031;-68
2024/01/03 04:09:10;;;;;;;48.28;41.42;;;;;;;;;;5093607;28;20142;-66
2024/01/03 04:11:42;;;;;;;32.17;28.60;;;;;;;;;;5096956;28;20043;-67
2024/01/03 04:14:08;;;;;;;23.27;18.63;;;;;;;;;;5095529;28;20055;-67
2024/01/03 04:16:34;;;;;;;20.67;17.20;;;;;;;;;;5093036;28;20083;-67
2024/01/03 04:18:59;;;;;;;32.92;26.83;;;;;;;;;;5077219;28;20027;-67
2024/01/03 04:21:25;;;;;;;29.77;23.65;;;;;;;;;;5094800;28;20024;-67
2024/01/03 04:23:50;;;;;;;14.60;12.38;;;;;;;;;;5074904;28;20039;-67
2024/01/03 04:26:16;;;;;;;12.85;10.50;;;;;;;;;;5092689;28;20032;-66
2024/01/03 04:28:41;;;;;;;22.63;16.63;;;;;;;;;;5094488;28;20042;-68
2024/01/03 04:31:06;;;;;;;30.30;22.13;;;;;;;;;;5090934;28;20024;-67
2024/01/03 04:33:32;;;;;;;17.88;13.10;;;;;;;;;;5079673;28;20028;-66
2024/01/03 04:35:57;;;;;;;15.68;9.45;;;;;;;;;;5097461;28;20345;-65
2024/01/03 04:38:22;;;;;;;27.33;19.10;;;;;;;;;;5093825;28;20324;-66
2024/01/03 04:40:48;;;;;;;25.20;16.67;;;;;;;;;;5075463;28;20445;-68
2024/01/03 04:43:13;;;;;;;19.77;14.20;;;;;;;;;;5082349;28;20023;-67
2024/01/03 04:45:38;;;;;;;21.02;15.18;;;;;;;;;;5094951;28;20090;-67
2024/01/03 04:48:04;;;;;;;18.63;11.52;;;;;;;;;;5093289;28;20047;-67
2024/01/03 04:50:30;;;;;;;19.15;12.13;;;;;;;;;;5095399;28;20054;-66
2024/01/03 04:52:55;;;;;;;13.98;9.63;;;;;;;;;;5095625;28;20047;-68
2024/01/03 04:55:20;;;;;;;12.73;9.10;;;;;;;;;;5095115;28;20392;-67
2024/01/03 04:57:46;;;;;;;6.00;3.95;;;;;;;;;;5089719;28;20038;-68
2024/01/03 05:00:11;;;;;;;12.52;7.20;;;;;;;;;;5074896;28;20028;-67
2024/01/03 05:02:37;;;;;;;13.35;8.30;;;;;;;;;;5073199;28;20036;-67
2024/01/03 05:05:02;;;;;;;16.67;10.40;;;;;;;;;;5070907;28;20115;-67
2024/01/03 05:07:28;;;;;;;8.43;5.85;;;;;;;;;;5068813;28;20043;-69
2024/01/03 05:09:53;;;;;;;14.75;10.88;;;;;;;;;;5072874;28;20185;-68
2024/01/03 05:12:18;;;;;;;19.27;11.90;;;;;;;;;;5070788;28;20039;-68
2024/01/03 05:14:44;;;;;;;8.77;6.70;;;;;;;;;;5071319;28;20028;-68
2024/01/03 05:17:09;;;;;;;19.80;14.38;;;;;;;;;;5089180;28;20020;-67
2024/01/03 05:19:34;;;;;;;11.30;7.20;;;;;;;;;;5074387;28;20031;-68
2024/01/03 05:22:00;;;;;;;17.58;11.88;;;;;;;;;;5093582;28;20039;-70
2024/01/03 05:24:26;;;;;;;17.30;9.93;;;;;;;;;;5096333;28;20035;-68
2024/01/03 05:26:52;;;;;;;6.70;4.25;;;;;;;;;;5095158;28;20458;-71
2024/01/03 05:29:17;;;;;;;14.00;7.40;;;;;;;;;;5093581;28;20032;-69
2024/01/03 05:31:42;;;;;;;16.50;12.70;;;;;;;;;;5095090;28;20024;-69
2024/01/03 05:34:08;;;;;;;33.35;24.70;;;;;;;;;;5095943;28;20059;-68
2024/01/03 05:36:34;;;;;;;25.10;16.58;;;;;;;;;;5059938;28;20063;-70
2024/01/03 05:38:59;;;;;;;33.17;21.67;;;;;;;;;;5097274;28;20461;-65
2024/01/03 05:41:25;;;;;;;21.90;14.90;;;;;;;;;;5085962;28;20039;-68
2024/01/03 05:43:50;;;;;;;16.63;12.00;;;;;;;;;;5088898;28;20021;-68
2024/01/03 05:46:15;;;;;;;14.35;9.95;;;;;;;;;;5096963;28;20206;-69
2024/01/03 05:48:42;;;;;;;15.40;10.80;;;;;;;;;;5081593;28;20059;-69
2024/01/03 05:51:08;;;;;;;8.55;5.63;;;;;;;;;;5097419;28;20381;-69
2024/01/03 05:53:34;;;;;;;9.82;6.25;;;;;;;;;;5099055;28;20036;-70
2024/01/03 05:55:59;;;;;;;23.33;19.15;;;;;;;;;;5097272;28;20096;-70
2024/01/03 05:58:24;;;;;;;16.23;11.77;;;;;;;;;;5096433;28;20032;-65
2024/01/03 06:00:50;;;;;;;11.30;9.10;;;;;;;;;;5099438;28;20047;-67
2024/01/03 06:03:15;;;;;;;12.00;8.30;;;;;;;;;;5096549;28;20032;-69
2024/01/03 06:05:41;;;;;;;14.25;9.02;;;;;;;;;;5097218;28;20435;-70
2024/01/03 06:08:06;;;;;;;8.70;5.75;;;;;;;;;;5095695;28;20343;-68
2024/01/03 06:10:32;;;;;;;6.45;3.88;;;;;;;;;;5099299;28;20031;-68
2024/01/03 06:12:57;;;;;;;8.23;5.18;;;;;;;;;;5096887;28;20347;-65
2024/01/03 06:15:22;;;;;;;8.48;5.18;;;;;;;;;;5095976;28;20103;-67
2024/01/03 06:17:48;;;;;;;4.43;2.75;;;;;;;;;;5098052;28;20139;-69
2024/01/03 06:20:13;;;;;;;4.60;3.13;;;;;;;;;;5096707;28;20126;-65
2024/01/03 06:22:39;;;;;;;8.00;4.50;;;;;;;;;;5094649;28;20035;-69
2024/01/03 06:25:04;;;;;;;7.38;3.67;;;;;;;;;;5099849;28;20050;-69
2024/01/03 06:27:29;;;;;;;9.45;5.63;;;;;;;;;;5095570;28;20023;-69
2024/01/03 06:29:55;;;;;;;5.20;2.92;;;;;;;;;;5078732;28;20035;-69
2024/01/03 06:32:20;;;;;;;6.50;3.60;;;;;;;;;;5073091;28;20117;-68
2024/01/03 06:34:45;;;;;;;8.25;3.85;;;;;;;;;;5087060;28;20426;-69
2024/01/03 06:37:11;;;;;;;12.75;8.82;;;;;;;;;;5098418;28;20030;-68
2024/01/03 06:39:36;;;;;;;31.55;27.58;;;;;;;;;;5090189;28;20482;-65
2024/01/03 06:42:02;;;;;;;32.50;29.13;;;;;;;;;;5086689;28;20403;-67
2024/01/03 06:44:27;;;;;;;18.70;16.70;;;;;;;;;;5095056;28;20027;-67
2024/01/03 06:46:52;;;;;;;48.13;41.75;;;;;;;;;;5094722;28;20024;-67
2024/01/03 06:49:18;;;;;;;62.15;51.28;;;;;;;;;;5094678;28;20035;-69
2024/01/03 06:51:44;;;;;;;23.23;18.20;;;;;;;;;;5098092;28;20114;-69
2024/01/03 06:54:09;;;;;;;81.03;49.60;;;;;;;;;;5092311;28;20130;-66
2024/01/03 06:56:34;;;;;;;38.03;25.33;;;;;;;;;;5094195;28;20340;-66
2024/01/03 06:59:00;;;;;;;22.08;15.77;;;;;;;;;;5097046;28;20626;-67
2024/01/03 07:01:26;;;;;;;19.00;13.32;;;;;;;;;;5096278;28;20572;-68
2024/01/03 07:03:51;;;;;;;12.50;8.45;;;;;;;;;;5095399;28;20031;-67
2024/01/03 07:06:17;;;;;;;16.08;12.25;;;;;;;;;;5095168;28;20036;-68
2024/01/03 07:08:42;;;;;;;21.58;10.52;;;;;;;;;;5096163;28;20090;-68
2024/01/03 07:11:07;;;;;;;12.05;8.75;;;;;;;;;;5095994;28;20427;-69
2024/01/03 07:13:33;;;;;;;13.25;10.35;;;;;;;;;;5095151;28;20038;-68
2024/01/03 07:15:58;;;;;;;12.23;8.75;;;;;;;;;;5097491;28;20058;-68
2024/01/03 07:18:23;;;;;;;27.35;14.75;;;;;;;;;;5094905;28;20031;-69
2024/01/03 07:20:49;;;;;;;13.73;7.50;;;;;;;;;;5095721;28;20063;-70
2024/01/03 07:23:14;;;;;;;12.98;9.00;;;;;;;;;;5095047;28;20411;-64
2024/01/03 07:25:40;;;;;;;13.98;7.30;;;;;;;;;;5093273;28;20066;-69
2024/01/03 07:28:05;;;;;;;8.93;6.22;;;;;;;;;;5095806;28;20027;-69
2024/01/03 07:30:31;;;;;;;7.32;5.30;;;;;;;;;;5096170;28;20413;-69
2024/01/03 07:32:57;;;;;;;20.55;13.07;;;;;;;;;;5096306;28;20046;-68
2024/01/03 07:35:23;;;;;;;17.70;11.70;;;;;;;;;;5094837;28;20079;-69
2024/01/03 07:37:49;;;;;;;10.77;7.30;;;;;;;;;;5095869;28;20031;-70
2024/01/03 07:40:14;;;;;;;8.02;4.70;;;;;;;;;;5095357;28;20031;-70
2024/01/03 07:42:39;;;;;;;8.93;4.68;;;;;;;;;;5092446;27;20099;-65
2024/01/03 07:45:05;;;;;;;10.77;7.47;;;;;;;;;;5094994;28;20055;-69
2024/01/03 07:47:30;;;;;;;10.05;5.78;;;;;;;;;;5097665;28;20416;-68
2024/01/03 07:49:56;;;;;;;9.98;6.63;;;;;;;;;;5097860;28;20495;-69
2024/01/03 07:52:21;;;;;;;9.38;5.88;;;;;;;;;;5087194;28;20511;-70
2024/01/03 07:54:46;;;;;;;14.57;8.35;;;;;;;;;;5078148;28;20031;-69
2024/01/03 07:57:12;;;;;;;13.57;6.00;;;;;;;;;;5073088;28;20031;-71
2024/01/03 07:59:40;;;;;;;21.55;16.17;;;;;;;;;;5074082;28;20031;-70
2024/01/03 08:02:06;;;;;;;23.33;16.77;;;;;;;;;;5074629;28;20052;-68
2024/01/03 08:04:31;;;;;;;15.73;14.02;;;;;;;;;;5071299;28;20060;-71
2024/01/03 08:06:57;;;;;;;9.80;7.97;;;;;;;;;;5075964;28;20045;-71
2024/01/03 08:09:22;;;;;;;13.20;9.27;;;;;;;;;;5087590;28;20363;-65
2024/01/03 08:11:47;;;;;;;11.02;8.90;;;;;;;;;;5075126;28;20020;-69
2024/01/03 08:14:14;;;;;;;8.57;6.55;;;;;;;;;;5091183;28;20222;-72
2024/01/03 08:16:39;;;;;;;17.52;11.60;;;;;;;;;;5079213;28;20453;-70
2024/01/03 08:19:04;;;;;;;5.22;4.07;;;;;;;;;;5093583;28;20035;-64
2024/01/03 08:21:30;;;;;;;9.00;6.85;;;;;;;;;;5091709;28;20052;-66
2024/01/03 08:23:55;;;;;;;9.75;4.60;;;;;;;;;;5095596;28;20417;-71
2024/01/03 08:26:21;;;;;;;8.90;5.03;;;;;;;;;;5076973;28;20046;-69
2024/01/03 08:28:46;;;;;;;7.45;4.53;;;;;;;;;;5083294;28;20035;-66
2024/01/03 08:31:15;;;;;;;12.45;6.03;;;;;;;;;;5078692;28;20024;-68
2024/01/03 08:33:41;;;;;;;11.10;7.22;;;;;;;;;;5091478;28;20787;-69
2024/01/03 08:36:11;;;;;;;18.67;9.38;;;;;;;;;;5095745;28;20131;-69
2024/01/03 08:38:36;;;;;;;13.35;8.10;;;;;;;;;;5097631;28;20019;-69
2024/01/03 08:41:02;;;;;;;34.78;26.90;;;;;;;;;;5093919;28;20327;-68
2024/01/03 08:43:27;;;;;;;18.75;10.85;;;;;;;;;;5095837;28;20374;-68
2024/01/03 08:45:53;;;;;;;19.10;10.48;;;;;;;;;;5094780;28;20314;-67
2024/01/03 08:48:18;;;;;;;23.45;16.63;;;;;;;;;;5095067;28;20058;-67
2024/01/03 08:50:44;;;;;;;15.57;11.32;;;;;;;;;;5094609;28;20024;-64
2024/01/03 08:53:09;;;;;;;59.80;41.67;;;;;;;;;;5083130;28;20099;-67
2024/01/03 08:55:35;;;;;;;47.92;33.55;;;;;;;;;;5090782;28;20109;-66
2024/01/03 08:58:00;;;;;;;38.67;25.65;;;;;;;;;;5096327;28;20035;-68
2024/01/03 09:00:25;;;;;;;187.20;156.95;;;;;;;;;;5079072;28;20035;-68
2024/01/03 09:02:51;;;;;;;71.55;52.60;;;;;;;;;;5088461;28;20466;-70
2024/01/03 09:05:18;;;;;;;126.38;74.97;;;;;;;;;;5081052;28;20177;-68
2024/01/03 09:07:44;;;;;;;26.23;16.50;;;;;;;;;;5082907;28;20082;-69
2024/01/03 09:10:10;;;;;;;11.88;8.40;;;;;;;;;;5090677;28;20031;-65
2024/01/03 09:12:35;;;;;;;7.45;4.85;;;;;;;;;;5090979;28;20043;-65
2024/01/03 09:15:01;;;;;;;6.97;4.50;;;;;;;;;;5092004;28;20019;-68
2024/01/03 09:17:26;;;;;;;7.72;5.03;;;;;;;;;;5094554;28;20024;-69
2024/01/03 09:19:51;;;;;;;12.73;6.68;;;;;;;;;;5091739;28;20123;-69
2024/01/03 09:22:17;;;;;;;7.10;3.70;;;;;;;;;;5094346;28;20020;-69
2024/01/03 09:24:42;;;;;;;4.20;3.35;;;;;;;;;;5091353;28;20119;-68
2024/01/03 09:27:07;;;;;;;10.45;9.27;;;;;;;;;;5093474;28;20024;-68
2024/01/03 09:29:33;;;;;;;9.80;7.57;;;;;;;;;;5093119;28;20039;-65
2024/01/03 09:31:58;;;;;;;13.13;5.88;;;;;;;;;;5090887;28;20070;-68
2024/01/03 09:34:24;;;;;;;18.30;15.10;;;;;;;;;;5071166;28;20103;-67
2024/01/03 09:36:49;;;;;;;9.20;8.30;;;;;;;;;;5089216;28;20028;-69
2024/01/03 09:39:16;;;;;;;7.55;5.80;;;;;;;;;;5092496;28;20849;-69
2024/01/03 09:41:42;;;;;;;9.20;7.95;;;;;;;;;;5091468;28;20027;-67
2024/01/03 09:44:08;;;;;;;9.57;7.97;;;;;;;;;;5088028;28;20080;-69
2024/01/03 09:46:34;;;;;;;8.20;5.88;;;;;;;;;;5082870;28;20028;-66
2024/01/03 09:48:59;;;;;;;7.80;6.93;;;;;;;;;;5082342;28;20046;-68
2024/01/03 09:51:24;;;;;;;11.73;7.90;;;;;;;;;;5082554;28;21000;-67
2024/01/03 09:53:51;;;;;;;19.08;15.45;;;;;;;;;;5088952;28;20031;-67
2024/01/03 09:56:16;;;;;;;7.97;5.10;;;;;;;;;;5096607;28;20020;-69
2024/01/03 09:58:42;;;;;;;5.65;4.05;;;;;;;;;;5094666;28;20652;-66
2024/01/03 10:01:08;;;;;;;6.80;4.78;;;;;;;;;;5089830;28;20389;-69
2024/01/03 10:03:33;;;;;;;14.85;9.23;;;;;;;;;;5093458;28;20024;-68
2024/01/03 10:06:13;;;;;;;18.50;12.23;;;;;;;;;;5062321;28;20559;-64
2024/01/03 10:08:38;;;;;;;;;;;;;;;;;;5079146;27;20164;-67
2024/01/03 10:11:22;;;;;;;30.60;27.50;;;;;;;;;;5078472;27;20338;-67
2024/01/03 10:13:52;;;;;;;28.63;20.35;;;;;;;;;;5073698;28;20114;-63
2024/01/03 10:16:27;;;;;;;22.92;20.17;;;;;;;;;;5083351;28;20409;-64
2024/01/03 10:19:09;;;;;;;15.52;12.82;;;;;;;;;;5080238;28;20063;-69
2024/01/03 10:21:36;;;;;;;6.88;4.88;;;;;;;;;;5082008;27;20318;-69
2024/01/03 10:24:03;;;;;;;13.63;9.43;;;;;;;;;;5084834;28;20448;-69
2024/01/03 10:26:28;;;;;;;19.05;8.15;;;;;;;;;;5084910;28;20072;-65
2024/01/03 10:29:07;;;;;;;14.52;11.25;;;;;;;;;;5092788;28;20035;-67
2024/01/03 10:31:32;;;;;;;14.77;8.48;;;;;;;;;;5091581;28;20028;-68
2024/01/03 10:33:58;;;;;;;14.52;8.80;;;;;;;;;;5091893;28;20096;-69
2024/01/03 10:36:23;;;;;;;15.60;8.88;;;;;;;;;;5085130;28;20469;-69
2024/01/03 10:38:49;;;;;;;14.40;10.02;;;;;;;;;;5083586;28;23014;-67
2024/01/03 10:41:15;;;;;;;17.83;10.65;;;;;;;;;;5064852;28;20818;-66
2024/01/03 10:43:41;;;;;;;14.07;7.63;;;;;;;;;;5082328;28;20127;-64
2024/01/03 10:46:07;;;;;;;19.02;12.73;;;;;;;;;;5084628;28;20070;-68
2024/01/03 10:48:32;;;;;;;11.10;6.95;;;;;;;;;;5083012;28;20063;-68
2024/01/03 10:50:59;;;;;;;8.65;6.13;;;;;;;;;;5083198;28;20068;-69
2024/01/03 10:53:26;;;;;;;17.70;11.63;;;;;;;;;;5081316;28;20515;-66
2024/01/03 10:55:54;;;;;;;14.80;10.98;;;;;;;;;;5084564;28;20011;-70
2024/01/03 10:58:20;;;;;;;9.60;8.60;;;;;;;;;;5081504;28;20114;-66
2024/01/03 11:00:57;;;;;;;27.75;24.98;;;;;;;;;;5080937;28;20102;-66
2024/01/03 11:03:23;;;;;;;14.73;13.02;;;;;;;;;;5068868;28;20361;-68
2024/01/03 11:05:54;;;;;;;15.23;12.52;;;;;;;;;;5082326;28;20111;-66
2024/01/03 11:08:21;;;;;;;10.65;9.27;;;;;;;;;;5082247;28;20055;-69
2024/01/03 11:10:51;;;;;;;15.15;11.23;;;;;;;;;;5085328;28;20067;-66
2024/01/03 11:13:26;;;;;;;10.00;8.32;;;;;;;;;;5081425;28;20047;-70
2024/01/03 11:15:53;;;;;;;7.07;5.97;;;;;;;;;;5082433;28;20129;-66
2024/01/03 11:18:37;;;;;;;23.13;17.40;;;;;;;;;;5083298;28;20039;-69
2024/01/03 11:21:30;;;;;;;10.40;7.53;;;;;;;;;;5080057;28;20032;-70
2024/01/03 11:23:56;;;;;;;19.83;13.32;;;;;;;;;;5073701;28;20116;-70
2024/01/03 11:26:40;;;;;;;17.60;13.48;;;;;;;;;;5080132;28;20035;-70
2024/01/03 11:29:05;;;;;;;10.73;7.75;;;;;;;;;;5081908;28;20103;-63
2024/01/03 11:31:49;;;;;;;8.73;4.55;;;;;;;;;;5080401;28;20110;-67
2024/01/03 11:34:33;;;;;;;25.58;13.75;;;;;;;;;;5080877;28;20023;-67
2024/01/03 11:36:58;;;;;;;35.80;16.67;;;;;;;;;;5075883;28;20350;-66
2024/01/03 11:39:38;;;;;;;9.60;8.60;;;;;;;;;;5076282;28;20034;-69
2024/01/03 11:42:04;;;;;;;10.45;6.18;;;;;;;;;;5056001;28;20023;-68
2024/01/03 11:44:30;;;;;;;16.58;10.25;;;;;;;;;;5074243;28;20024;-67
2024/01/03 11:46:58;;;;;;;15.02;8.63;;;;;;;;;;5081293;28;20473;-70
2024/01/03 11:49:24;;;;;;;8.27;5.65;;;;;;;;;;5060182;28;20066;-66
2024/01/03 11:51:49;;;;;;;10.05;6.18;;;;;;;;;;5077691;28;20106;-66
2024/01/03 11:54:14;;;;;;;12.98;9.48;;;;;;;;;;5076756;28;20066;-64
2024/01/03 11:56:40;;;;;;;13.95;8.18;;;;;;;;;;5080538;28;20085;-69
2024/01/03 11:59:05;;;;;;;9.43;7.65;;;;;;;;;;5081053;28;20034;-70
2024/01/03 12:01:30;;;;;;;14.02;7.35;;;;;;;;;;5078460;28;20467;-66
2024/01/03 12:04:11;;;;;;;8.43;6.65;;;;;;;;;;5077595;28;20508;-69
2024/01/03 12:06:40;;;;;;;7.75;5.75;;;;;;;;;;5080678;28;20466;-70
2024/01/03 12:09:06;;;;;;;11.70;6.10;;;;;;;;;;5080120;28;20043;-67
2024/01/03 12:11:31;;;;;;;14.52;10.07;;;;;;;;;;5076725;28;20035;-71
2024/01/03 12:13:57;;;;;;;14.00;8.57;;;;;;;;;;5080569;28;20410;-69
2024/01/03 12:16:22;;;;;;;8.15;5.93;;;;;;;;;;5080992;28;20019;-70
2024/01/03 12:18:51;;;;;;;11.73;8.43;;;;;;;;;;5082891;28;21111;-67
2024/01/03 12:21:17;;;;;;;20.30;14.30;;;;;;;;;;5081145;28;20043;-71
2024/01/03 12:24:12;;;;;;;11.90;7.88;;;;;;;;;;5081425;28;20027;-70
2024/01/03 12:26:37;;;;;;;24.42;14.88;;;;;;;;;;4984739;28;20221;-69
2024/01/03 12:29:03;;;;;;;25.70;16.73;;;;;;;;;;4996645;28;20445;-71
2024/01/03 12:31:29;;;;;;;17.88;12.43;;;;;;;;;;4991863;28;20139;-69
2024/01/03 12:34:06;;;;;;;23.70;16.40;;;;;;;;;;4984600;28;20022;-73
2024/01/03 12:36:32;;;;;;;19.23;13.00;;;;;;;;;;4985213;28;20054;-69
2024/01/03 12:38:58;;;;;;;15.65;9.77;;;;;;;;;;4993282;28;20037;-68
2024/01/03 12:41:23;;;;;;;8.63;7.05;;;;;;;;;;4986997;28;20082;-65
2024/01/03 12:43:49;;;;;;;6.55;5.40;;;;;;;;;;4991621;28;20045;-69
2024/01/03 12:46:14;;;;;;;11.80;9.35;;;;;;;;;;4989506;28;20103;-69
2024/01/03 12:48:39;;;;;;;11.70;7.75;;;;;;;;;;4985203;28;20313;-65
2024/01/03 12:51:05;;;;;;;13.02;8.05;;;;;;;;;;4987096;28;20124;-70
2024/01/03 12:53:30;;;;;;;13.05;9.70;;;;;;;;;;4990875;28;20516;-69
2024/01/03 12:55:56;;;;;;;16.52;11.98;;;;;;;;;;4988386;28;20670;-71
2024/01/03 12:58:21;;;;;;;10.18;6.82;;;;;;;;;;4971038;28;20107;-72
2024/01/03 13:00:46;;;;;;;10.60;6.63;;;;;;;;;;4989570;28;20342;-70
2024/01/03 13:03:12;;;;;;;17.33;11.77;;;;;;;;;;5042469;28;20040;-70
2024/01/03 13:05:37;;;;;;;19.65;13.85;;;;;;;;;;5080645;28;20031;-65
2024/01/03 13:08:03;;;;;;;16.23;9.23;;;;;;;;;;5078728;28;20046;-67
2024/01/03 13:10:30;;;;;;;11.73;5.82;;;;;;;;;;5077855;28;20434;-67
2024/01/03 13:12:55;;;;;;;13.18;8.90;;;;;;;;;;5082267;28;20960;-70
2024/01/03 13:15:21;;;;;;;10.82;8.60;;;;;;;;;;5085448;28;20023;-69
2024/01/03 13:17:46;;;;;;;30.13;24.02;;;;;;;;;;5068278;28;20051;-68
2024/01/03 13:20:15;;;;;;;9.65;7.35;;;;;;;;;;5082255;28;20043;-65
2024/01/03 13:22:40;;;;;;;11.95;7.50;;;;;;;;;;5075886;28;20920;-69
2024/01/03 13:25:06;;;;;;;8.75;6.35;;;;;;;;;;5077440;28;20049;-70
2024/01/03 13:27:31;;;;;;;6.07;4.20;;;;;;;;;;5075946;28;20085;-69
2024/01/03 13:29:57;;;;;;;11.43;8.30;;;;;;;;;;5077816;28;20050;-69
2024/01/03 13:32:22;;;;;;;10.63;9.38;;;;;;;;;;5079180;28;20082;-69
2024/01/03 13:34:47;;;;;;;7.88;5.55;;;;;;;;;;5076610;28;20020;-67
2024/01/03 13:37:13;;;;;;;8.43;6.15;;;;;;;;;;5081309;28;20023;-70
2024/01/03 13:39:38;;;;;;;8.05;5.45;;;;;;;;;;5080680;28;20035;-66
2024/01/03 13:42:05;;;;;;;20.60;15.25;;;;;;;;;;5079555;28;20136;-69
2024/01/03 13:44:30;;;;;;;11.23;9.50;;;;;;;;;;5078420;28;20051;-69
2024/01/03 13:46:56;;;;;;;12.40;9.57;;;;;;;;;;5083461;28;20442;-69
2024/01/03 13:49:21;;;;;;;19.90;17.80;;;;;;;;;;5081797;28;20462;-69
2024/01/03 13:51:48;;;;;;;14.10;10.60;;;;;;;;;;5085753;28;20465;-68
2024/01/03 13:54:13;;;;;;;12.73;8.98;;;;;;;;;;5083134;28;20043;-65
2024/01/03 13:56:39;;;;;;;13.70;10.77;;;;;;;;;;5083840;28;20121;-69
2024/01/03 13:59:05;;;;;;;13.70;10.05;;;;;;;;;;5083684;28;20023;-69
2024/01/03 14:01:30;;;;;;;8.73;6.53;;;;;;;;;;5085924;28;20037;-72
2024/01/03 14:03:56;;;;;;;12.90;9.25;;;;;;;;;;5084117;28;20020;-70
2024/01/03 14:06:21;;;;;;;32.80;22.23;;;;;;;;;;5086246;28;20028;-70
2024/01/03 14:08:47;;;;;;;18.83;15.20;;;;;;;;;;5082465;28;20048;-67
2024/01/03 14:11:12;;;;;;;24.13;20.40;;;;;;;;;;5083914;28;20039;-70
2024/01/03 14:13:37;;;;;;;18.73;14.85;;;;;;;;;;5083355;28;20115;-66
2024/01/03 14:16:05;;;;;;;13.80;12.23;;;;;;;;;;5083716;28;20023;-70
2024/01/03 14:18:31;;;;;;;9.48;6.20;;;;;;;;;;5084049;28;20040;-72